createdAt,value
2018-08-31T00:00:04.974Z,14.4
2018-08-31T00:05:02.738Z,14.4
2018-08-31T00:10:37.948Z,14.3
2018-08-31T00:15:23.521Z,14.3
2018-08-31T00:20:23.127Z,14.3
2018-08-31T00:25:08.268Z,14.2
2018-08-31T00:30:05.088Z,14.1
2018-08-31T00:35:33.269Z,14
2018-08-31T00:40:08.170Z,14
2018-08-31T00:45:10.974Z,14
2018-08-31T00:50:03.211Z,14
2018-08-31T00:55:07.610Z,13.9
2018-08-31T01:00:08.017Z,13.8
2018-08-31T01:05:05.812Z,13.8
2018-08-31T01:10:05.100Z,13.7
2018-08-31T01:15:05.392Z,13.6
2018-08-31T01:20:02.810Z,13.7
2018-08-31T01:25:03.032Z,13.6
2018-08-31T01:30:08.395Z,13.5
2018-08-31T01:35:07.618Z,13.4
2018-08-31T01:40:04.939Z,13.4
2018-08-31T01:45:10.285Z,13.3
2018-08-31T01:50:05.086Z,13.3
2018-08-31T01:55:20.600Z,13.2
2018-08-31T02:00:05.453Z,13.2
2018-08-31T02:05:02.482Z,13.2
2018-08-31T02:10:03.390Z,13.1
2018-08-31T02:15:02.688Z,13.1
2018-08-31T02:20:05.597Z,13
2018-08-31T02:25:26.069Z,12.9
2018-08-31T02:30:02.411Z,12.9
2018-08-31T02:35:07.737Z,12.9
2018-08-31T02:40:07.536Z,12.8
2018-08-31T02:45:02.803Z,12.8
2018-08-31T02:50:03.103Z,12.8
2018-08-31T02:55:05.866Z,12.7
2018-08-31T03:00:30.972Z,12.7
2018-08-31T03:05:08.291Z,12.7
2018-08-31T03:10:02.982Z,12.7
2018-08-31T03:15:05.790Z,12.6
2018-08-31T03:20:05.763Z,12.6
2018-08-31T03:25:05.139Z,12.6
2018-08-31T03:30:04.989Z,12.6
2018-08-31T03:35:10.364Z,12.5
2018-08-31T03:40:10.731Z,12.5
2018-08-31T03:45:15.037Z,12.4
2018-08-31T03:50:13.501Z,12.4
2018-08-31T03:55:05.170Z,12.4
2018-08-31T04:00:10.046Z,12.3
2018-08-31T04:05:07.878Z,12.3
2018-08-31T04:10:02.596Z,12.3
2018-08-31T04:15:05.516Z,12.2
2018-08-31T04:20:05.510Z,12.2
2018-08-31T04:25:08.244Z,12.1
2018-08-31T04:30:05.042Z,12.1
2018-08-31T04:35:33.201Z,12.2
2018-08-31T04:40:05.451Z,12.1
2018-08-31T04:45:10.816Z,12.1
2018-08-31T04:50:31.073Z,12.1
2018-08-31T04:55:07.488Z,12.1
2018-08-31T05:00:15.369Z,12.1
2018-08-31T05:05:23.187Z,12.1
2018-08-31T05:10:18.160Z,12.1
2018-08-31T05:15:03.279Z,12.1
2018-08-31T05:20:07.628Z,12.1
2018-08-31T05:25:08.039Z,12.1
2018-08-31T05:30:05.013Z,12.1
2018-08-31T05:35:20.565Z,12.1
2018-08-31T05:40:03.321Z,12.1
2018-08-31T05:45:02.580Z,12.1
2018-08-31T05:50:15.504Z,12.1
2018-08-31T05:55:05.712Z,12.1
2018-08-31T06:00:02.991Z,12.1
2018-08-31T06:05:10.093Z,12.2
2018-08-31T06:10:05.402Z,12.3
2018-08-31T06:15:25.949Z,12.3
2018-08-31T06:20:03.299Z,12.3
2018-08-31T06:25:10.110Z,12.5
2018-08-31T06:30:02.489Z,12.5
2018-08-31T06:35:07.832Z,12.7
2018-08-31T06:40:06.523Z,12.8
2018-08-31T06:45:18.048Z,12.9
2018-08-31T06:50:03.281Z,12.9
2018-08-31T06:55:07.648Z,12.9
2018-08-31T07:00:02.986Z,12.9
2018-08-31T07:05:08.386Z,13.1
2018-08-31T07:10:18.513Z,13.1
2018-08-31T07:15:02.832Z,13.1
2018-08-31T07:20:03.169Z,13.2
2018-08-31T07:25:05.058Z,13.2
2018-08-31T07:30:27.827Z,13.3
2018-08-31T07:35:07.458Z,13.4
2018-08-31T07:40:02.513Z,13.4
2018-08-31T07:45:05.370Z,13.6
2018-08-31T07:50:12.820Z,13.7
2018-08-31T07:55:10.540Z,13.8
2018-08-31T08:00:02.855Z,13.8
2018-08-31T08:05:03.244Z,13.9
2018-08-31T08:10:02.970Z,14
2018-08-31T08:15:03.281Z,14.1
2018-08-31T08:20:10.315Z,14.3
2018-08-31T08:25:03.023Z,14.4
2018-08-31T08:30:10.115Z,14.6
2018-08-31T08:35:07.951Z,14.7
2018-08-31T08:45:05.567Z,15
2018-08-31T08:50:03.130Z,15
2018-08-31T08:55:02.395Z,15.2
2018-08-31T09:00:15.586Z,15.5
2018-08-31T09:05:05.878Z,15.6
2018-08-31T09:10:02.591Z,15.6
2018-08-31T09:15:10.728Z,15.5
2018-08-31T09:20:05.644Z,15.6
2018-08-31T09:25:02.733Z,15.6
2018-08-31T09:30:10.656Z,15.8
2018-08-31T09:35:03.312Z,15.8
2018-08-31T09:40:10.924Z,16.1
2018-08-31T09:45:02.653Z,16.1
2018-08-31T09:50:05.704Z,16.5
2018-08-31T09:55:07.588Z,16.7
2018-08-31T10:00:05.412Z,17
2018-08-31T10:05:05.719Z,17
2018-08-31T10:10:05.062Z,17.2
2018-08-31T10:15:05.337Z,17.1
2018-08-31T10:20:02.697Z,17.1
2018-08-31T10:25:08.049Z,17.1
2018-08-31T10:30:02.502Z,17.1
2018-08-31T10:35:05.712Z,17.2
2018-08-31T10:40:02.500Z,17.2
2018-08-31T10:45:08.009Z,17.4
2018-08-31T10:50:18.490Z,17.2
2018-08-31T10:55:10.220Z,17.3
2018-08-31T11:00:02.506Z,17.3
2018-08-31T11:05:10.388Z,17.5
2018-08-31T11:10:05.722Z,17.4
2018-08-31T11:15:27.818Z,17.4
2018-08-31T11:20:13.302Z,17.5
2018-08-31T11:25:04.983Z,17.6
2018-08-31T11:30:03.372Z,17.5
2018-08-31T11:35:10.219Z,18
2018-08-31T11:40:23.254Z,18.1
2018-08-31T11:45:07.652Z,17.9
2018-08-31T11:50:10.549Z,17.8
2018-08-31T11:55:05.800Z,18
2018-08-31T12:00:10.307Z,18.2
2018-08-31T12:05:08.116Z,18.3
2018-08-31T12:10:15.539Z,18.5
2018-08-31T12:15:20.996Z,18.6
2018-08-31T12:20:02.675Z,18.6
2018-08-31T12:25:02.727Z,18.9
2018-08-31T12:30:03.091Z,19
2018-08-31T12:35:02.553Z,18.7
2018-08-31T12:40:21.062Z,18.7
2018-08-31T12:45:10.419Z,18.7
2018-08-31T12:50:07.839Z,19.4
2018-08-31T12:55:05.641Z,19.6
2018-08-31T13:00:03.008Z,19.6
2018-08-31T13:05:02.707Z,20
2018-08-31T13:10:02.554Z,20.7
2018-08-31T13:15:05.496Z,20.8
2018-08-31T13:20:03.099Z,20.8
2018-08-31T13:25:03.324Z,21.4
2018-08-31T13:30:05.293Z,23.1
2018-08-31T13:35:08.226Z,23.8
2018-08-31T13:40:03.217Z,23.8
2018-08-31T13:45:02.657Z,24.2
2018-08-31T13:50:05.564Z,25.9
2018-08-31T13:55:05.032Z,27.5
2018-08-31T14:00:22.930Z,28.2
2018-08-31T14:05:08.329Z,28.5
2018-08-31T14:10:05.767Z,29.6
2018-08-31T14:15:07.730Z,28.3
2018-08-31T14:20:18.380Z,28
2018-08-31T14:25:12.753Z,29.2
2018-08-31T14:30:36.072Z,28.1
2018-08-31T14:35:17.631Z,28.4
2018-08-31T14:40:02.534Z,28.5
2018-08-31T14:45:02.922Z,27.7
2018-08-31T14:50:05.840Z,25.4
2018-08-31T14:55:05.323Z,24.7
2018-08-31T15:00:02.702Z,24.6
2018-08-31T15:05:05.680Z,25.8
2018-08-31T15:10:10.176Z,25.2
2018-08-31T15:15:02.951Z,25.2
2018-08-31T15:20:05.970Z,23.8
2018-08-31T15:25:10.368Z,23.6
2018-08-31T15:30:05.475Z,23
2018-08-31T15:35:03.315Z,22.9
2018-08-31T15:40:05.709Z,22.3
2018-08-31T15:45:10.288Z,21.9
2018-08-31T15:50:07.681Z,21.5
2018-08-31T15:55:02.943Z,21.5
2018-08-31T16:00:10.854Z,21.7
2018-08-31T16:05:07.732Z,21.7
2018-08-31T16:10:07.609Z,21.8
2018-08-31T16:15:02.950Z,21.8
2018-08-31T16:20:03.325Z,21.8
2018-08-31T16:25:25.496Z,21.4
2018-08-31T16:30:20.577Z,21.2
2018-08-31T16:35:08.400Z,20.8
2018-08-31T16:40:05.732Z,20.5
2018-08-31T16:45:15.367Z,20.3
2018-08-31T16:50:07.775Z,20.1
2018-08-31T16:55:05.589Z,20.1
2018-08-31T17:00:05.540Z,20
2018-08-31T17:05:05.181Z,19.9
2018-08-31T17:10:05.735Z,19.8
2018-08-31T17:15:05.888Z,19.8
2018-08-31T17:20:05.935Z,19.7
2018-08-31T17:25:05.104Z,19.7
2018-08-31T17:30:02.442Z,19.6
2018-08-31T17:35:05.391Z,19.4
2018-08-31T17:40:08.295Z,19.2
2018-08-31T17:45:07.654Z,19.1
2018-08-31T17:50:08.136Z,19.1
2018-08-31T17:55:04.952Z,19.1
2018-08-31T18:00:04.969Z,19
2018-08-31T18:05:18.202Z,18.9
2018-08-31T18:10:05.532Z,18.8
2018-08-31T18:15:10.935Z,18.7
2018-08-31T18:20:10.250Z,18.6
2018-08-31T18:25:20.770Z,18.5
2018-08-31T18:30:03.161Z,18.5
2018-08-31T18:35:02.484Z,18.5
2018-08-31T18:40:03.511Z,18.4
2018-08-31T18:45:02.748Z,18.3
2018-08-31T18:50:10.827Z,18.2
2018-08-31T18:55:05.244Z,18.2
2018-08-31T19:00:12.706Z,18.1
2018-08-31T19:05:02.984Z,18
2018-08-31T19:10:05.380Z,17.9
2018-08-31T19:15:03.125Z,17.9
2018-08-31T19:20:02.467Z,17.8
2018-08-31T19:25:10.500Z,17.5
2018-08-31T19:30:03.095Z,17.5
2018-08-31T19:35:02.433Z,17.4
2018-08-31T19:40:08.324Z,17.2
2018-08-31T19:45:02.473Z,17.3
2018-08-31T19:50:12.945Z,17.1
2018-08-31T19:55:20.763Z,17
2018-08-31T20:00:03.097Z,17
2018-08-31T20:05:05.881Z,16.8
2018-08-31T20:10:07.890Z,16.7
2018-08-31T20:15:05.790Z,16.6
2018-08-31T20:20:02.450Z,16.6
2018-08-31T20:25:05.393Z,16.4
2018-08-31T20:30:05.294Z,16.4
2018-08-31T20:35:03.125Z,16.4
2018-08-31T20:40:05.449Z,16.2
2018-08-31T20:45:03.319Z,16.2
2018-08-31T20:50:02.611Z,16.1
2018-08-31T20:55:18.482Z,15.9
2018-08-31T21:00:10.419Z,15.9
2018-08-31T21:05:03.186Z,15.9
2018-08-31T21:10:08.015Z,15.9
2018-08-31T21:15:07.420Z,15.8
2018-08-31T21:20:05.388Z,15.7
2018-08-31T21:25:08.238Z,15.6
2018-08-31T21:30:12.753Z,15.5
2018-08-31T21:35:08.197Z,15.5
2018-08-31T21:40:02.936Z,15.5
2018-08-31T21:45:26.126Z,15.4
2018-08-31T21:50:20.167Z,15.4
2018-08-31T21:55:05.311Z,15.4
2018-08-31T22:00:02.602Z,15.3
2018-08-31T22:05:05.494Z,15.3
2018-08-31T22:10:05.109Z,15.2
2018-08-31T22:15:05.463Z,15.2
2018-08-31T22:20:05.386Z,15.2
2018-08-31T22:25:05.568Z,15.1
2018-08-31T22:30:07.938Z,15.1
2018-08-31T22:35:03.322Z,15.1
2018-08-31T22:40:20.771Z,15
2018-08-31T22:45:22.749Z,15
2018-08-31T22:50:18.253Z,15
2018-08-31T22:55:03.330Z,15
2018-08-31T23:00:07.656Z,14.9
2018-08-31T23:05:02.997Z,14.9
2018-08-31T23:10:05.900Z,14.9
2018-08-31T23:15:02.682Z,14.8
2018-08-31T23:20:05.589Z,14.8
2018-08-31T23:25:12.648Z,14.8
2018-08-31T23:30:05.520Z,14.7
2018-08-31T23:35:03.333Z,14.7
2018-08-31T23:40:05.665Z,14.8
2018-08-31T23:45:04.990Z,14.8
2018-08-31T23:50:33.628Z,14.8
2018-08-31T23:55:18.091Z,14.8
